Decoded Metar for UKLL (LVOV in UKRAINE) (IATA:LWO) | Meteo·Mobile Aviation Weather
aviador You're here:

UKLL Decoded Metar

LVOV in UKRAINE
Report Time2019-06-18 15:00:00
UTC Time2019-06-18 15:09:04
Flight Rules vfr VFR
Wind070° at 8 kt
W.Decomp.*RWY 13: 3.6 kt HW 7.1 kt LCW
Visibility9999 m
Phenomena:N/A
Clouds:Broken 046 Hf
Expected CloudBase > 2,400 ft AGL from Temp-Dew spread
Ceiling4,600 ft
Temp23°C (ISA +10)
Dew Point17°C (69% RH)
AAT22.5°C
QNH1018 hPa
Density Alt2,333 ft
Elevation1,066 ft
Report Wrong Elevation
Raw Report
METAR UKLL 181500Z 07004MPS 9999 BKN046 23/17 Q1018
R13/CLRD// NOSIG=

Extra information for UKLL:More info

Metar Taf Metar & Taf Last 4 Metars F.Rules Stats Wind Profile Meteogram Temp Stats Airport Information Weather charts Add Link Nearby VenuesMetar ALERT Operation Metar Decoded Social comments